sensor_id;sensor_type;location;lat;lon;timestamp;temperature;humidity
59973;DHT22;55298;-36.624;-64.282;2024-02-15T00:01:25;23.20;58.50
59973;DHT22;55298;-36.624;-64.282;2024-02-15T00:03:54;23.10;58.50
59973;DHT22;55298;-36.624;-64.282;2024-02-15T00:06:21;23.10;58.60
59973;DHT22;55298;-36.624;-64.282;2024-02-15T00:08:49;23.00;59.60
59973;DHT22;55298;-36.624;-64.282;2024-02-15T00:11:18;23.00;60.10
59973;DHT22;55298;-36.624;-64.282;2024-02-15T00:13:46;22.80;60.60
59973;DHT22;55298;-36.624;-64.282;2024-02-15T00:16:15;22.80;61.40
59973;DHT22;55298;-36.624;-64.282;2024-02-15T00:18:43;22.70;61.80
59973;DHT22;55298;-36.624;-64.282;2024-02-15T00:21:14;22.70;62.40
59973;DHT22;55298;-36.624;-64.282;2024-02-15T00:23:42;22.50;63.40
59973;DHT22;55298;-36.624;-64.282;2024-02-15T00:26:10;22.50;63.60
59973;DHT22;55298;-36.624;-64.282;2024-02-15T00:28:41;22.40;64.40
59973;DHT22;55298;-36.624;-64.282;2024-02-15T00:31:10;22.30;64.50
59973;DHT22;55298;-36.624;-64.282;2024-02-15T00:33:38;22.20;65.90
59973;DHT22;55298;-36.624;-64.282;2024-02-15T00:36:06;22.10;66.70
59973;DHT22;55298;-36.624;-64.282;2024-02-15T00:38:35;22.10;67.50
59973;DHT22;55298;-36.624;-64.282;2024-02-15T00:41:02;22.10;67.70
59973;DHT22;55298;-36.624;-64.282;2024-02-15T00:43:35;22.00;69.20
59973;DHT22;55298;-36.624;-64.282;2024-02-15T00:46:02;21.90;69.80
59973;DHT22;55298;-36.624;-64.282;2024-02-15T00:48:30;21.90;70.60
59973;DHT22;55298;-36.624;-64.282;2024-02-15T00:50:59;21.80;70.90
59973;DHT22;55298;-36.624;-64.282;2024-02-15T00:53:28;21.80;71.80
59973;DHT22;55298;-36.624;-64.282;2024-02-15T00:55:57;21.80;72.20
59973;DHT22;55298;-36.624;-64.282;2024-02-15T00:58:24;21.70;72.60
59973;DHT22;55298;-36.624;-64.282;2024-02-15T01:00:54;21.80;73.20
59973;DHT22;55298;-36.624;-64.282;2024-02-15T01:03:23;21.70;73.90
59973;DHT22;55298;-36.624;-64.282;2024-02-15T01:05:50;21.60;74.50
59973;DHT22;55298;-36.624;-64.282;2024-02-15T01:08:18;21.60;75.20
59973;DHT22;55298;-36.624;-64.282;2024-02-15T01:10:47;21.50;75.80
59973;DHT22;55298;-36.624;-64.282;2024-02-15T01:13:18;21.50;76.40
59973;DHT22;55298;-36.624;-64.282;2024-02-15T01:15:46;21.40;77.10
59973;DHT22;55298;-36.624;-64.282;2024-02-15T01:18:14;21.40;77.80
59973;DHT22;55298;-36.624;-64.282;2024-02-15T01:20:50;21.30;78.00
59973;DHT22;55298;-36.624;-64.282;2024-02-15T01:23:19;21.30;78.60
59973;DHT22;55298;-36.624;-64.282;2024-02-15T01:25:47;21.30;78.80
59973;DHT22;55298;-36.624;-64.282;2024-02-15T01:28:14;21.20;79.30
59973;DHT22;55298;-36.624;-64.282;2024-02-15T01:30:42;21.20;79.80
59973;DHT22;55298;-36.624;-64.282;2024-02-15T01:33:11;21.10;80.70
59973;DHT22;55298;-36.624;-64.282;2024-02-15T01:35:39;21.00;80.60
59973;DHT22;55298;-36.624;-64.282;2024-02-15T01:38:09;21.10;81.00
59973;DHT22;55298;-36.624;-64.282;2024-02-15T01:40:37;21.10;81.20
59973;DHT22;55298;-36.624;-64.282;2024-02-15T01:43:06;21.10;81.30
59973;DHT22;55298;-36.624;-64.282;2024-02-15T01:45:34;21.00;82.20
59973;DHT22;55298;-36.624;-64.282;2024-02-15T01:48:02;21.00;83.40
59973;DHT22;55298;-36.624;-64.282;2024-02-15T01:50:31;21.00;82.90
59973;DHT22;55298;-36.624;-64.282;2024-02-15T01:53:03;21.00;83.20
59973;DHT22;55298;-36.624;-64.282;2024-02-15T01:55:32;20.90;82.80
59973;DHT22;55298;-36.624;-64.282;2024-02-15T01:58:01;20.90;83.20
59973;DHT22;55298;-36.624;-64.282;2024-02-15T02:00:31;20.90;83.90
59973;DHT22;55298;-36.624;-64.282;2024-02-15T02:02:59;20.90;83.90
59973;DHT22;55298;-36.624;-64.282;2024-02-15T02:05:30;21.00;84.20
59973;DHT22;55298;-36.624;-64.282;2024-02-15T02:07:58;20.90;84.20
59973;DHT22;55298;-36.624;-64.282;2024-02-15T02:10:28;20.90;84.60
59973;DHT22;55298;-36.624;-64.282;2024-02-15T02:13:00;20.90;84.20
59973;DHT22;55298;-36.624;-64.282;2024-02-15T02:15:29;20.90;85.00
59973;DHT22;55298;-36.624;-64.282;2024-02-15T02:18:00;20.90;84.80
59973;DHT22;55298;-36.624;-64.282;2024-02-15T02:20:28;20.90;85.40
59973;DHT22;55298;-36.624;-64.282;2024-02-15T02:23:03;20.80;85.10
59973;DHT22;55298;-36.624;-64.282;2024-02-15T02:25:35;20.80;85.70
59973;DHT22;55298;-36.624;-64.282;2024-02-15T02:28:04;20.80;86.60
59973;DHT22;55298;-36.624;-64.282;2024-02-15T02:30:34;20.70;87.00
59973;DHT22;55298;-36.624;-64.282;2024-02-15T02:33:02;20.60;87.50
59973;DHT22;55298;-36.624;-64.282;2024-02-15T02:35:34;20.60;88.10
59973;DHT22;55298;-36.624;-64.282;2024-02-15T02:38:02;20.60;88.40
59973;DHT22;55298;-36.624;-64.282;2024-02-15T02:40:30;20.40;88.50
59973;DHT22;55298;-36.624;-64.282;2024-02-15T02:42:58;20.50;89.10
59973;DHT22;55298;-36.624;-64.282;2024-02-15T02:45:26;20.50;89.70
59973;DHT22;55298;-36.624;-64.282;2024-02-15T02:47:55;20.40;90.00
59973;DHT22;55298;-36.624;-64.282;2024-02-15T02:50:23;20.40;90.10
59973;DHT22;55298;-36.624;-64.282;2024-02-15T02:52:51;20.40;90.30
59973;DHT22;55298;-36.624;-64.282;2024-02-15T02:55:23;20.30;90.40
59973;DHT22;55298;-36.624;-64.282;2024-02-15T02:57:53;20.30;90.80
59973;DHT22;55298;-36.624;-64.282;2024-02-15T03:00:21;20.30;90.80
59973;DHT22;55298;-36.624;-64.282;2024-02-15T03:02:50;20.20;91.10
59973;DHT22;55298;-36.624;-64.282;2024-02-15T03:05:18;20.20;91.10
59973;DHT22;55298;-36.624;-64.282;2024-02-15T03:07:47;20.30;91.10
59973;DHT22;55298;-36.624;-64.282;2024-02-15T03:10:15;20.20;91.40
59973;DHT22;55298;-36.624;-64.282;2024-02-15T03:12:43;20.20;91.50
59973;DHT22;55298;-36.624;-64.282;2024-02-15T03:15:17;20.20;91.70
59973;DHT22;55298;-36.624;-64.282;2024-02-15T03:17:47;20.10;91.70
59973;DHT22;55298;-36.624;-64.282;2024-02-15T03:20:15;20.10;91.70
59973;DHT22;55298;-36.624;-64.282;2024-02-15T03:22:54;20.10;92.10
59973;DHT22;55298;-36.624;-64.282;2024-02-15T03:25:23;20.10;92.10
59973;DHT22;55298;-36.624;-64.282;2024-02-15T03:27:53;20.00;92.20
59973;DHT22;55298;-36.624;-64.282;2024-02-15T03:30:24;20.00;92.60
59973;DHT22;55298;-36.624;-64.282;2024-02-15T03:32:53;19.90;92.70
59973;DHT22;55298;-36.624;-64.282;2024-02-15T03:35:24;20.00;92.80
59973;DHT22;55298;-36.624;-64.282;2024-02-15T03:37:52;19.90;93.00
59973;DHT22;55298;-36.624;-64.282;2024-02-15T03:40:21;19.90;93.10
59973;DHT22;55298;-36.624;-64.282;2024-02-15T03:42:51;19.90;93.30
59973;DHT22;55298;-36.624;-64.282;2024-02-15T03:45:19;19.90;93.40
59973;DHT22;55298;-36.624;-64.282;2024-02-15T03:47:48;19.90;93.70
59973;DHT22;55298;-36.624;-64.282;2024-02-15T03:50:17;19.80;93.90
59973;DHT22;55298;-36.624;-64.282;2024-02-15T03:52:46;19.80;94.20
59973;DHT22;55298;-36.624;-64.282;2024-02-15T03:55:14;19.70;94.60
59973;DHT22;55298;-36.624;-64.282;2024-02-15T03:57:42;19.70;94.70
59973;DHT22;55298;-36.624;-64.282;2024-02-15T04:00:12;19.60;95.40
59973;DHT22;55298;-36.624;-64.282;2024-02-15T04:02:41;19.60;95.60
59973;DHT22;55298;-36.624;-64.282;2024-02-15T04:05:10;19.50;95.90
59973;DHT22;55298;-36.624;-64.282;2024-02-15T04:07:38;19.50;96.00
59973;DHT22;55298;-36.624;-64.282;2024-02-15T04:10:07;19.50;96.20
59973;DHT22;55298;-36.624;-64.282;2024-02-15T04:12:35;19.50;96.30
59973;DHT22;55298;-36.624;-64.282;2024-02-15T04:15:04;19.50;96.40
59973;DHT22;55298;-36.624;-64.282;2024-02-15T04:17:39;19.40;97.20
59973;DHT22;55298;-36.624;-64.282;2024-02-15T04:20:08;19.30;97.40
59973;DHT22;55298;-36.624;-64.282;2024-02-15T04:22:36;19.40;97.50
59973;DHT22;55298;-36.624;-64.282;2024-02-15T04:25:06;19.30;97.90
59973;DHT22;55298;-36.624;-64.282;2024-02-15T04:27:36;19.20;98.30
59973;DHT22;55298;-36.624;-64.282;2024-02-15T04:30:09;19.20;99.00
59973;DHT22;55298;-36.624;-64.282;2024-02-15T04:32:37;19.10;99.40
59973;DHT22;55298;-36.624;-64.282;2024-02-15T04:35:05;19.10;99.80
59973;DHT22;55298;-36.624;-64.282;2024-02-15T04:37:32;19.00;99.90
59973;DHT22;55298;-36.624;-64.282;2024-02-15T04:40:01;18.90;99.90
59973;DHT22;55298;-36.624;-64.282;2024-02-15T04:42:36;18.90;99.90
59973;DHT22;55298;-36.624;-64.282;2024-02-15T04:45:07;18.90;99.90
59973;DHT22;55298;-36.624;-64.282;2024-02-15T04:47:36;18.90;99.90
59973;DHT22;55298;-36.624;-64.282;2024-02-15T04:50:05;18.80;99.90
59973;DHT22;55298;-36.624;-64.282;2024-02-15T04:52:33;18.80;99.90
59973;DHT22;55298;-36.624;-64.282;2024-02-15T04:55:02;18.80;99.90
59973;DHT22;55298;-36.624;-64.282;2024-02-15T04:57:32;18.90;99.90
59973;DHT22;55298;-36.624;-64.282;2024-02-15T05:00:03;18.80;99.90
59973;DHT22;55298;-36.624;-64.282;2024-02-15T05:02:39;18.80;99.90
59973;DHT22;55298;-36.624;-64.282;2024-02-15T05:05:08;18.70;99.90
59973;DHT22;55298;-36.624;-64.282;2024-02-15T05:07:36;18.70;99.90
59973;DHT22;55298;-36.624;-64.282;2024-02-15T05:10:06;18.70;99.90
59973;DHT22;55298;-36.624;-64.282;2024-02-15T05:12:37;18.60;99.90
59973;DHT22;55298;-36.624;-64.282;2024-02-15T05:15:06;18.60;99.90
59973;DHT22;55298;-36.624;-64.282;2024-02-15T05:17:38;18.60;99.90
59973;DHT22;55298;-36.624;-64.282;2024-02-15T05:20:08;18.60;99.90
59973;DHT22;55298;-36.624;-64.282;2024-02-15T05:22:40;18.50;99.90
59973;DHT22;55298;-36.624;-64.282;2024-02-15T05:25:13;18.50;99.90
59973;DHT22;55298;-36.624;-64.282;2024-02-15T05:27:42;18.40;99.90
59973;DHT22;55298;-36.624;-64.282;2024-02-15T05:30:11;18.40;99.90
59973;DHT22;55298;-36.624;-64.282;2024-02-15T05:32:39;18.40;99.90
59973;DHT22;55298;-36.624;-64.282;2024-02-15T05:35:11;18.30;99.90
59973;DHT22;55298;-36.624;-64.282;2024-02-15T05:37:39;18.30;99.90
59973;DHT22;55298;-36.624;-64.282;2024-02-15T05:40:07;18.30;99.90
59973;DHT22;55298;-36.624;-64.282;2024-02-15T05:42:43;18.30;99.90
59973;DHT22;55298;-36.624;-64.282;2024-02-15T05:45:30;18.20;99.90
59973;DHT22;55298;-36.624;-64.282;2024-02-15T05:47:59;18.20;99.90
59973;DHT22;55298;-36.624;-64.282;2024-02-15T05:50:27;18.20;99.90
59973;DHT22;55298;-36.624;-64.282;2024-02-15T05:52:56;18.10;99.90
59973;DHT22;55298;-36.624;-64.282;2024-02-15T05:55:25;18.10;99.90
59973;DHT22;55298;-36.624;-64.282;2024-02-15T05:57:53;18.10;99.90
59973;DHT22;55298;-36.624;-64.282;2024-02-15T06:00:22;18.10;99.90
59973;DHT22;55298;-36.624;-64.282;2024-02-15T06:02:49;18.00;99.90
59973;DHT22;55298;-36.624;-64.282;2024-02-15T06:05:19;18.00;99.90
59973;DHT22;55298;-36.624;-64.282;2024-02-15T06:07:48;18.00;99.90
59973;DHT22;55298;-36.624;-64.282;2024-02-15T06:10:16;18.00;99.90
59973;DHT22;55298;-36.624;-64.282;2024-02-15T06:12:44;18.00;99.90
59973;DHT22;55298;-36.624;-64.282;2024-02-15T06:15:12;18.00;99.90
59973;DHT22;55298;-36.624;-64.282;2024-02-15T06:17:43;18.00;99.90
59973;DHT22;55298;-36.624;-64.282;2024-02-15T06:20:13;17.80;99.90
59973;DHT22;55298;-36.624;-64.282;2024-02-15T06:22:41;17.80;99.90
59973;DHT22;55298;-36.624;-64.282;2024-02-15T06:25:09;17.80;99.90
59973;DHT22;55298;-36.624;-64.282;2024-02-15T06:27:39;17.70;99.90
59973;DHT22;55298;-36.624;-64.282;2024-02-15T06:30:11;17.70;99.90
59973;DHT22;55298;-36.624;-64.282;2024-02-15T06:32:48;17.60;99.90
59973;DHT22;55298;-36.624;-64.282;2024-02-15T06:35:25;17.60;99.90
59973;DHT22;55298;-36.624;-64.282;2024-02-15T06:38:02;17.60;99.90
59973;DHT22;55298;-36.624;-64.282;2024-02-15T06:40:39;17.60;99.90
59973;DHT22;55298;-36.624;-64.282;2024-02-15T06:43:07;17.60;99.90
59973;DHT22;55298;-36.624;-64.282;2024-02-15T06:45:35;17.60;99.90
59973;DHT22;55298;-36.624;-64.282;2024-02-15T06:48:04;17.50;99.90
59973;DHT22;55298;-36.624;-64.282;2024-02-15T06:50:34;17.50;99.90
59973;DHT22;55298;-36.624;-64.282;2024-02-15T06:53:04;17.50;99.90
59973;DHT22;55298;-36.624;-64.282;2024-02-15T06:55:31;17.50;99.90
59973;DHT22;55298;-36.624;-64.282;2024-02-15T06:58:00;17.40;99.90
59973;DHT22;55298;-36.624;-64.282;2024-02-15T07:00:28;17.40;99.90
59973;DHT22;55298;-36.624;-64.282;2024-02-15T07:02:58;17.40;99.90
59973;DHT22;55298;-36.624;-64.282;2024-02-15T07:05:27;17.40;99.90
59973;DHT22;55298;-36.624;-64.282;2024-02-15T07:07:55;17.40;99.90
59973;DHT22;55298;-36.624;-64.282;2024-02-15T07:10:26;17.40;99.90
59973;DHT22;55298;-36.624;-64.282;2024-02-15T07:13:06;17.40;99.90
59973;DHT22;55298;-36.624;-64.282;2024-02-15T07:15:35;17.30;99.90
59973;DHT22;55298;-36.624;-64.282;2024-02-15T07:18:05;17.40;99.90
59973;DHT22;55298;-36.624;-64.282;2024-02-15T07:20:34;17.40;99.90
59973;DHT22;55298;-36.624;-64.282;2024-02-15T07:23:05;17.50;99.90
59973;DHT22;55298;-36.624;-64.282;2024-02-15T07:25:35;17.30;99.90
59973;DHT22;55298;-36.624;-64.282;2024-02-15T07:28:03;17.30;99.90
59973;DHT22;55298;-36.624;-64.282;2024-02-15T07:30:31;17.30;99.90
59973;DHT22;55298;-36.624;-64.282;2024-02-15T07:32:59;17.30;99.90
59973;DHT22;55298;-36.624;-64.282;2024-02-15T07:35:26;17.30;99.90
59973;DHT22;55298;-36.624;-64.282;2024-02-15T07:38:16;17.20;99.90
59973;DHT22;55298;-36.624;-64.282;2024-02-15T07:40:44;17.20;99.90
59973;DHT22;55298;-36.624;-64.282;2024-02-15T07:43:35;17.20;99.90
59973;DHT22;55298;-36.624;-64.282;2024-02-15T07:46:38;17.10;99.90
59973;DHT22;55298;-36.624;-64.282;2024-02-15T07:49:11;17.00;99.90
59973;DHT22;55298;-36.624;-64.282;2024-02-15T07:51:57;17.10;99.90
59973;DHT22;55298;-36.624;-64.282;2024-02-15T07:55:11;17.00;99.90
59973;DHT22;55298;-36.624;-64.282;2024-02-15T07:57:59;17.00;99.90
59973;DHT22;55298;-36.624;-64.282;2024-02-15T08:00:49;16.90;99.90
59973;DHT22;55298;-36.624;-64.282;2024-02-15T08:03:52;16.90;99.90
59973;DHT22;55298;-36.624;-64.282;2024-02-15T08:06:27;16.80;99.90
59973;DHT22;55298;-36.624;-64.282;2024-02-15T08:09:29;16.70;99.90
59973;DHT22;55298;-36.624;-64.282;2024-02-15T08:12:12;16.70;99.90
59973;DHT22;55298;-36.624;-64.282;2024-02-15T08:15:04;16.70;99.90
59973;DHT22;55298;-36.624;-64.282;2024-02-15T08:18:17;16.70;99.90
59973;DHT22;55298;-36.624;-64.282;2024-02-15T08:20:47;16.70;99.90
59973;DHT22;55298;-36.624;-64.282;2024-02-15T08:23:24;16.60;99.90
59973;DHT22;55298;-36.624;-64.282;2024-02-15T08:26:16;16.70;99.90
59973;DHT22;55298;-36.624;-64.282;2024-02-15T08:28:47;16.70;99.90
59973;DHT22;55298;-36.624;-64.282;2024-02-15T08:31:20;16.70;99.90
59973;DHT22;55298;-36.624;-64.282;2024-02-15T08:33:52;16.70;99.90
59973;DHT22;55298;-36.624;-64.282;2024-02-15T08:36:48;16.70;99.90
59973;DHT22;55298;-36.624;-64.282;2024-02-15T08:39:30;16.70;99.90
59973;DHT22;55298;-36.624;-64.282;2024-02-15T08:42:01;16.70;99.90
59973;DHT22;55298;-36.624;-64.282;2024-02-15T08:44:31;16.70;99.90
59973;DHT22;55298;-36.624;-64.282;2024-02-15T08:47:01;16.70;99.90
59973;DHT22;55298;-36.624;-64.282;2024-02-15T08:49:32;16.70;99.90
59973;DHT22;55298;-36.624;-64.282;2024-02-15T08:52:25;16.70;99.90
59973;DHT22;55298;-36.624;-64.282;2024-02-15T08:55:14;16.70;99.90
59973;DHT22;55298;-36.624;-64.282;2024-02-15T08:57:48;16.60;99.90
59973;DHT22;55298;-36.624;-64.282;2024-02-15T09:00:30;16.60;99.90
59973;DHT22;55298;-36.624;-64.282;2024-02-15T09:03:07;16.60;99.90
59973;DHT22;55298;-36.624;-64.282;2024-02-15T09:06:04;16.60;99.90
59973;DHT22;55298;-36.624;-64.282;2024-02-15T09:08:37;16.50;99.90
59973;DHT22;55298;-36.624;-64.282;2024-02-15T09:11:09;16.40;99.90
59973;DHT22;55298;-36.624;-64.282;2024-02-15T09:14:33;16.40;99.90
59973;DHT22;55298;-36.624;-64.282;2024-02-15T09:17:23;16.30;99.90
59973;DHT22;55298;-36.624;-64.282;2024-02-15T09:19:55;16.30;99.90
59973;DHT22;55298;-36.624;-64.282;2024-02-15T09:22:24;16.20;99.90
59973;DHT22;55298;-36.624;-64.282;2024-02-15T09:24:54;16.20;99.90
59973;DHT22;55298;-36.624;-64.282;2024-02-15T09:28:27;16.20;99.90
59973;DHT22;55298;-36.624;-64.282;2024-02-15T09:31:01;16.20;99.90
59973;DHT22;55298;-36.624;-64.282;2024-02-15T09:33:29;16.10;99.90
59973;DHT22;55298;-36.624;-64.282;2024-02-15T09:35:56;16.10;99.90
59973;DHT22;55298;-36.624;-64.282;2024-02-15T09:38:25;16.10;99.90
59973;DHT22;55298;-36.624;-64.282;2024-02-15T09:41:03;16.10;99.90
59973;DHT22;55298;-36.624;-64.282;2024-02-15T09:43:37;16.00;99.90
59973;DHT22;55298;-36.624;-64.282;2024-02-15T09:46:16;16.10;99.90
59973;DHT22;55298;-36.624;-64.282;2024-02-15T09:48:59;16.10;99.90
59973;DHT22;55298;-36.624;-64.282;2024-02-15T09:51:35;16.10;99.90
59973;DHT22;55298;-36.624;-64.282;2024-02-15T09:54:08;16.00;99.90
59973;DHT22;55298;-36.624;-64.282;2024-02-15T09:56:40;16.00;99.90
59973;DHT22;55298;-36.624;-64.282;2024-02-15T09:59:12;18.10;99.90
59973;DHT22;55298;-36.624;-64.282;2024-02-15T10:01:41;16.10;99.90
59973;DHT22;55298;-36.624;-64.282;2024-02-15T10:04:12;16.30;99.90
59973;DHT22;55298;-36.624;-64.282;2024-02-15T10:06:43;15.50;99.90
59973;DHT22;55298;-36.624;-64.282;2024-02-15T10:09:31;16.40;99.90
59973;DHT22;55298;-36.624;-64.282;2024-02-15T10:12:03;16.20;99.90
59973;DHT22;55298;-36.624;-64.282;2024-02-15T10:14:33;16.20;99.90
59973;DHT22;55298;-36.624;-64.282;2024-02-15T10:17:09;16.30;99.90
59973;DHT22;55298;-36.624;-64.282;2024-02-15T10:22:11;16.40;99.90
59973;DHT22;55298;-36.624;-64.282;2024-02-15T10:24:44;16.30;99.90
59973;DHT22;55298;-36.624;-64.282;2024-02-15T10:27:27;16.40;99.90
59973;DHT22;55298;-36.624;-64.282;2024-02-15T10:30:16;16.40;99.90
59973;DHT22;55298;-36.624;-64.282;2024-02-15T10:32:49;16.30;99.90
59973;DHT22;55298;-36.624;-64.282;2024-02-15T10:35:21;16.40;99.90
59973;DHT22;55298;-36.624;-64.282;2024-02-15T10:38:08;16.40;99.90
59973;DHT22;55298;-36.624;-64.282;2024-02-15T10:40:39;16.50;99.90
59973;DHT22;55298;-36.624;-64.282;2024-02-15T10:43:10;16.60;99.90
59973;DHT22;55298;-36.624;-64.282;2024-02-15T10:45:46;16.60;99.90
59973;DHT22;55298;-36.624;-64.282;2024-02-15T10:48:16;16.70;99.90
59973;DHT22;55298;-36.624;-64.282;2024-02-15T10:51:03;16.70;99.90
59973;DHT22;55298;-36.624;-64.282;2024-02-15T10:53:32;16.80;99.90
59973;DHT22;55298;-36.624;-64.282;2024-02-15T10:56:13;16.90;99.90
59973;DHT22;55298;-36.624;-64.282;2024-02-15T10:59:00;17.10;99.90
59973;DHT22;55298;-36.624;-64.282;2024-02-15T11:01:36;17.40;99.90
59973;DHT22;55298;-36.624;-64.282;2024-02-15T11:04:08;17.70;99.90
59973;DHT22;55298;-36.624;-64.282;2024-02-15T11:06:42;18.10;99.90
59973;DHT22;55298;-36.624;-64.282;2024-02-15T11:09:11;19.10;99.90
59973;DHT22;55298;-36.624;-64.282;2024-02-15T11:11:42;20.20;99.90
59973;DHT22;55298;-36.624;-64.282;2024-02-15T11:14:28;21.20;99.90
59973;DHT22;55298;-36.624;-64.282;2024-02-15T11:17:08;22.00;99.70
59973;DHT22;55298;-36.624;-64.282;2024-02-15T11:19:42;22.80;96.60
59973;DHT22;55298;-36.624;-64.282;2024-02-15T11:22:15;23.40;93.00
59973;DHT22;55298;-36.624;-64.282;2024-02-15T11:24:49;23.80;90.70
59973;DHT22;55298;-36.624;-64.282;2024-02-15T11:27:28;24.10;87.20
59973;DHT22;55298;-36.624;-64.282;2024-02-15T11:29:59;24.80;83.90
59973;DHT22;55298;-36.624;-64.282;2024-02-15T11:32:43;25.30;79.90
59973;DHT22;55298;-36.624;-64.282;2024-02-15T11:35:17;25.60;75.70
59973;DHT22;55298;-36.624;-64.282;2024-02-15T11:37:56;25.90;72.50
59973;DHT22;55298;-36.624;-64.282;2024-02-15T11:40:28;26.00;68.60
59973;DHT22;55298;-36.624;-64.282;2024-02-15T11:42:58;26.10;66.90
59973;DHT22;55298;-36.624;-64.282;2024-02-15T11:45:28;26.30;67.00
59973;DHT22;55298;-36.624;-64.282;2024-02-15T11:48:08;26.70;66.20
59973;DHT22;55298;-36.624;-64.282;2024-02-15T11:50:41;27.10;61.40
59973;DHT22;55298;-36.624;-64.282;2024-02-15T11:53:09;27.40;60.20
59973;DHT22;55298;-36.624;-64.282;2024-02-15T11:55:40;27.30;59.20
59973;DHT22;55298;-36.624;-64.282;2024-02-15T11:58:10;27.30;58.70
59973;DHT22;55298;-36.624;-64.282;2024-02-15T12:00:46;27.40;59.00
59973;DHT22;55298;-36.624;-64.282;2024-02-15T12:03:25;27.60;57.70
59973;DHT22;55298;-36.624;-64.282;2024-02-15T12:06:03;27.80;56.70
59973;DHT22;55298;-36.624;-64.282;2024-02-15T12:08:43;27.90;56.20
59973;DHT22;55298;-36.624;-64.282;2024-02-15T12:11:33;27.80;55.90
59973;DHT22;55298;-36.624;-64.282;2024-02-15T12:14:24;28.00;55.40
59973;DHT22;55298;-36.624;-64.282;2024-02-15T12:17:15;27.80;55.00
59973;DHT22;55298;-36.624;-64.282;2024-02-15T12:19:53;27.80;56.20
59973;DHT22;55298;-36.624;-64.282;2024-02-15T12:22:32;28.20;55.60
59973;DHT22;55298;-36.624;-64.282;2024-02-15T12:25:03;28.50;53.80
59973;DHT22;55298;-36.624;-64.282;2024-02-15T12:27:41;28.50;53.80
59973;DHT22;55298;-36.624;-64.282;2024-02-15T12:30:18;28.50;53.70
59973;DHT22;55298;-36.624;-64.282;2024-02-15T12:32:52;28.50;53.90
59973;DHT22;55298;-36.624;-64.282;2024-02-15T12:35:27;28.70;54.20
59973;DHT22;55298;-36.624;-64.282;2024-02-15T12:38:04;29.40;52.70
59973;DHT22;55298;-36.624;-64.282;2024-02-15T12:40:35;29.70;51.80
59973;DHT22;55298;-36.624;-64.282;2024-02-15T12:43:06;29.70;51.30
59973;DHT22;55298;-36.624;-64.282;2024-02-15T12:45:38;29.60;51.30
59973;DHT22;55298;-36.624;-64.282;2024-02-15T12:48:08;30.50;51.10
59973;DHT22;55298;-36.624;-64.282;2024-02-15T12:50:38;30.80;49.20
59973;DHT22;55298;-36.624;-64.282;2024-02-15T12:53:06;30.50;49.30
59973;DHT22;55298;-36.624;-64.282;2024-02-15T12:55:36;30.10;50.00
59973;DHT22;55298;-36.624;-64.282;2024-02-15T12:58:12;29.90;50.40
59973;DHT22;55298;-36.624;-64.282;2024-02-15T13:00:42;29.90;50.60
59973;DHT22;55298;-36.624;-64.282;2024-02-15T13:03:10;30.00;50.60
59973;DHT22;55298;-36.624;-64.282;2024-02-15T13:05:39;29.90;50.30
59973;DHT22;55298;-36.624;-64.282;2024-02-15T13:08:08;29.90;50.10
59973;DHT22;55298;-36.624;-64.282;2024-02-15T13:10:43;29.80;50.50
59973;DHT22;55298;-36.624;-64.282;2024-02-15T13:13:12;29.60;51.10
59973;DHT22;55298;-36.624;-64.282;2024-02-15T13:15:46;29.60;51.20
59973;DHT22;55298;-36.624;-64.282;2024-02-15T13:18:14;29.90;50.50
59973;DHT22;55298;-36.624;-64.282;2024-02-15T13:20:46;30.40;50.00
59973;DHT22;55298;-36.624;-64.282;2024-02-15T13:23:17;30.90;49.20
59973;DHT22;55298;-36.624;-64.282;2024-02-15T13:25:50;31.60;48.10
59973;DHT22;55298;-36.624;-64.282;2024-02-15T13:28:19;31.80;46.60
59973;DHT22;55298;-36.624;-64.282;2024-02-15T13:30:47;32.00;46.20
59973;DHT22;55298;-36.624;-64.282;2024-02-15T13:33:19;32.20;45.60
59973;DHT22;55298;-36.624;-64.282;2024-02-15T13:35:47;32.50;44.80
59973;DHT22;55298;-36.624;-64.282;2024-02-15T13:38:16;32.20;44.90
59973;DHT22;55298;-36.624;-64.282;2024-02-15T13:40:49;31.70;45.80
59973;DHT22;55298;-36.624;-64.282;2024-02-15T13:43:18;31.10;46.90
59973;DHT22;55298;-36.624;-64.282;2024-02-15T13:45:47;31.00;48.20
59973;DHT22;55298;-36.624;-64.282;2024-02-15T13:48:15;31.30;47.00
59973;DHT22;55298;-36.624;-64.282;2024-02-15T13:50:43;31.40;47.00
59973;DHT22;55298;-36.624;-64.282;2024-02-15T13:53:11;31.60;46.90
59973;DHT22;55298;-36.624;-64.282;2024-02-15T13:55:40;31.80;46.60
59973;DHT22;55298;-36.624;-64.282;2024-02-15T13:58:08;32.40;45.60
59973;DHT22;55298;-36.624;-64.282;2024-02-15T14:00:39;32.20;44.80
59973;DHT22;55298;-36.624;-64.282;2024-02-15T14:03:14;32.30;45.00
59973;DHT22;55298;-36.624;-64.282;2024-02-15T14:05:45;32.50;44.60
59973;DHT22;55298;-36.624;-64.282;2024-02-15T14:08:14;32.70;44.10
59973;DHT22;55298;-36.624;-64.282;2024-02-15T14:10:42;33.10;43.80
59973;DHT22;55298;-36.624;-64.282;2024-02-15T14:13:12;33.30;42.70
59973;DHT22;55298;-36.624;-64.282;2024-02-15T14:15:43;33.30;42.80
59973;DHT22;55298;-36.624;-64.282;2024-02-15T14:18:14;33.30;43.30
59973;DHT22;55298;-36.624;-64.282;2024-02-15T14:20:46;33.30;42.50
59973;DHT22;55298;-36.624;-64.282;2024-02-15T14:23:15;33.40;43.20
59973;DHT22;55298;-36.624;-64.282;2024-02-15T14:25:43;33.70;42.60
59973;DHT22;55298;-36.624;-64.282;2024-02-15T14:28:11;33.80;41.50
59973;DHT22;55298;-36.624;-64.282;2024-02-15T14:30:41;33.30;42.30
59973;DHT22;55298;-36.624;-64.282;2024-02-15T14:33:18;33.30;43.10
59973;DHT22;55298;-36.624;-64.282;2024-02-15T14:35:50;33.40;42.60
59973;DHT22;55298;-36.624;-64.282;2024-02-15T14:38:20;33.70;42.10
59973;DHT22;55298;-36.624;-64.282;2024-02-15T14:40:49;33.80;41.70
59973;DHT22;55298;-36.624;-64.282;2024-02-15T14:43:23;33.70;41.80
59973;DHT22;55298;-36.624;-64.282;2024-02-15T14:45:52;33.60;41.80
59973;DHT22;55298;-36.624;-64.282;2024-02-15T14:48:21;33.60;42.10
59973;DHT22;55298;-36.624;-64.282;2024-02-15T14:50:51;33.30;42.00
59973;DHT22;55298;-36.624;-64.282;2024-02-15T14:53:24;33.20;43.00
59973;DHT22;55298;-36.624;-64.282;2024-02-15T14:55:53;33.30;42.60
59973;DHT22;55298;-36.624;-64.282;2024-02-15T14:58:22;33.40;42.80
59973;DHT22;55298;-36.624;-64.282;2024-02-15T15:00:50;33.50;43.00
59973;DHT22;55298;-36.624;-64.282;2024-02-15T15:03:20;33.80;42.60
59973;DHT22;55298;-36.624;-64.282;2024-02-15T15:05:50;33.90;41.90
59973;DHT22;55298;-36.624;-64.282;2024-02-15T15:08:30;33.90;42.20
59973;DHT22;55298;-36.624;-64.282;2024-02-15T15:11:11;34.20;41.90
59973;DHT22;55298;-36.624;-64.282;2024-02-15T15:13:48;34.00;41.20
59973;DHT22;55298;-36.624;-64.282;2024-02-15T15:16:16;33.60;41.90
59973;DHT22;55298;-36.624;-64.282;2024-02-15T15:18:49;33.50;42.70
59973;DHT22;55298;-36.624;-64.282;2024-02-15T15:21:19;33.40;42.30
59973;DHT22;55298;-36.624;-64.282;2024-02-15T15:23:49;33.30;42.90